Time;durP1;ratioP1;P1;durP2;ratioP2;P2;SDS_P1;SDS_P2;PMS_P1;PMS_P2;Temp;Humidity;BMP_temperature;BMP_pressure;BME280_temperature;BME280_humidity;BME280_pressure;Samples;Min_cycle;Max_cycle;Signal;HPM_P1;HPM_P2
2024/02/19 00:01:49;;;;;;;11.80;2.55;;;7.90;99.90;;;;;;4892965;29;20241;-80
2024/02/19 00:04:16;;;;;;;5.57;1.85;;;7.90;99.90;;;;;;4866328;29;20056;-82
2024/02/19 00:06:45;;;;;;;4.10;1.30;;;7.90;99.90;;;;;;4855152;29;20044;-80
2024/02/19 00:09:13;;;;;;;11.23;1.27;;;7.80;99.90;;;;;;4874033;29;20046;-80
2024/02/19 00:11:40;;;;;;;5.25;1.52;;;7.80;99.90;;;;;;4873255;29;20036;-80
2024/02/19 00:14:09;;;;;;;2.28;1.13;;;7.80;99.90;;;;;;4878397;29;20052;-80
2024/02/19 00:16:38;;;;;;;2.75;1.65;;;7.80;99.90;;;;;;4853422;29;20072;-81
2024/02/19 00:19:08;;;;;;;5.50;1.23;;;7.80;99.90;;;;;;4880214;29;20055;-81
2024/02/19 00:21:37;;;;;;;8.68;1.23;;;7.80;99.90;;;;;;4868820;29;20496;-80
2024/02/19 00:24:05;;;;;;;4.50;1.67;;;7.80;99.90;;;;;;4886238;29;20507;-81
2024/02/19 00:26:34;;;;;;;4.88;2.08;;;7.80;99.90;;;;;;4874464;29;20075;-81
2024/02/19 00:29:01;;;;;;;3.42;2.03;;;7.80;99.90;;;;;;4870407;29;20052;-81
2024/02/19 00:31:28;;;;;;;7.03;2.47;;;7.80;99.90;;;;;;4879166;29;20052;-80
2024/02/19 00:33:55;;;;;;;6.20;1.35;;;7.80;99.90;;;;;;4898013;29;20102;-81
2024/02/19 00:36:23;;;;;;;14.68;2.85;;;7.80;99.90;;;;;;4890220;29;20404;-81
2024/02/19 00:39:05;;;;;;;11.40;2.28;;;7.80;99.90;;;;;;4868031;29;20040;-81
2024/02/19 00:41:32;;;;;;;17.95;2.75;;;7.80;99.90;;;;;;4861904;29;20047;-82
2024/02/19 00:44:00;;;;;;;14.80;2.65;;;7.80;99.90;;;;;;4864642;29;20052;-81
2024/02/19 00:46:27;;;;;;;12.20;2.42;;;7.80;99.90;;;;;;4892782;29;20098;-81
2024/02/19 00:48:54;;;;;;;8.15;2.78;;;7.80;99.90;;;;;;4881736;29;20419;-81
2024/02/19 00:51:22;;;;;;;6.75;1.77;;;7.80;99.90;;;;;;4881975;29;20040;-81
2024/02/19 00:53:49;;;;;;;14.57;4.28;;;7.80;99.90;;;;;;4882288;29;20048;-81
2024/02/19 00:56:16;;;;;;;15.90;3.08;;;7.80;99.90;;;;;;4861292;29;21122;-81
2024/02/19 00:58:44;;;;;;;12.50;2.20;;;7.80;99.90;;;;;;4878753;29;20044;-81
2024/02/19 01:01:13;;;;;;;14.55;2.50;;;7.80;99.90;;;;;;4886673;29;20052;-81
2024/02/19 01:03:44;;;;;;;9.05;2.35;;;7.90;99.90;;;;;;4887235;29;20104;-81
2024/02/19 01:06:11;;;;;;;8.90;2.60;;;7.90;99.90;;;;;;4877999;29;20045;-81
2024/02/19 01:08:40;;;;;;;8.25;1.92;;;7.90;99.90;;;;;;4883265;29;20115;-81
2024/02/19 01:11:13;;;;;;;8.73;2.05;;;7.90;99.90;;;;;;4878595;29;20053;-81
2024/02/19 01:13:42;;;;;;;12.35;2.42;;;7.90;99.90;;;;;;4864476;29;20114;-81
2024/02/19 01:16:11;;;;;;;7.53;1.48;;;7.80;99.90;;;;;;4896567;29;20041;-80
2024/02/19 01:18:38;;;;;;;9.02;1.73;;;7.80;99.90;;;;;;4862651;29;20033;-80
2024/02/19 01:21:05;;;;;;;7.57;1.48;;;7.80;99.90;;;;;;4851332;29;20048;-82
2024/02/19 01:23:33;;;;;;;5.20;1.17;;;7.80;99.90;;;;;;4904555;29;20051;-80
2024/02/19 01:26:02;;;;;;;11.73;1.67;;;7.80;99.90;;;;;;4868994;29;20048;-81
2024/02/19 01:28:31;;;;;;;5.70;0.93;;;7.80;99.90;;;;;;4867142;29;20044;-82
2024/02/19 01:30:58;;;;;;;1.95;1.15;;;7.70;99.90;;;;;;4889274;29;20051;-81
2024/02/19 01:33:26;;;;;;;2.53;0.60;;;7.80;99.90;;;;;;4884772;29;20048;-82
2024/02/19 01:35:56;;;;;;;2.05;0.45;;;7.70;99.90;;;;;;4864845;29;20100;-81
2024/02/19 01:38:26;;;;;;;2.03;1.02;;;7.70;99.90;;;;;;4875082;29;20053;-82
2024/02/19 01:40:55;;;;;;;3.53;1.33;;;7.70;99.90;;;;;;4862162;29;20041;-82
2024/02/19 01:43:22;;;;;;;4.75;0.73;;;7.70;99.90;;;;;;4879484;29;20437;-81
2024/02/19 01:45:50;;;;;;;1.65;0.75;;;7.70;99.90;;;;;;4878728;29;20056;-82
2024/02/19 01:48:20;;;;;;;3.47;0.80;;;7.70;99.90;;;;;;4887631;29;20048;-82
2024/02/19 01:50:53;;;;;;;2.97;0.90;;;7.70;99.90;;;;;;4862509;29;20049;-82
2024/02/19 01:53:20;;;;;;;5.47;1.75;;;7.70;99.90;;;;;;4867686;29;20052;-81
2024/02/19 01:55:48;;;;;;;1.35;0.80;;;7.70;99.90;;;;;;4885182;29;20072;-81
2024/02/19 01:58:16;;;;;;;5.88;1.58;;;7.70;99.90;;;;;;4885159;29;20063;-82
2024/02/19 02:00:47;;;;;;;4.07;0.60;;;7.70;99.90;;;;;;4873742;29;20052;-82
2024/02/19 02:03:19;;;;;;;4.20;0.57;;;7.70;99.90;;;;;;4839959;29;20511;-81
2024/02/19 02:05:54;;;;;;;4.38;1.50;;;7.70;99.90;;;;;;4870221;29;20408;-82
2024/02/19 02:08:29;;;;;;;3.40;0.40;;;7.70;99.90;;;;;;4882534;29;20104;-79
2024/02/19 02:10:57;;;;;;;2.83;0.50;;;7.70;99.90;;;;;;4865684;29;20059;-80
2024/02/19 02:13:24;;;;;;;4.50;0.80;;;7.70;99.90;;;;;;4861080;29;20438;-80
2024/02/19 02:15:51;;;;;;;1.75;0.63;;;7.70;99.90;;;;;;4863997;29;20049;-81
2024/02/19 02:18:19;;;;;;;5.30;0.82;;;7.70;99.90;;;;;;4870705;29;20472;-81
2024/02/19 02:20:48;;;;;;;8.48;0.65;;;7.70;99.90;;;;;;4884945;29;20056;-81
2024/02/19 02:23:20;;;;;;;4.90;0.80;;;7.80;99.90;;;;;;4872897;29;20052;-81
2024/02/19 02:25:49;;;;;;;2.00;0.70;;;7.80;99.90;;;;;;4868912;29;20104;-81
2024/02/19 02:28:17;;;;;;;4.15;1.38;;;7.80;99.90;;;;;;4866642;29;20063;-80
2024/02/19 02:30:45;;;;;;;2.90;0.73;;;7.80;99.90;;;;;;4878389;29;20048;-81
2024/02/19 02:33:13;;;;;;;4.65;0.52;;;7.80;99.90;;;;;;4899960;29;20060;-81
2024/02/19 02:35:41;;;;;;;2.78;0.52;;;7.90;99.90;;;;;;4895877;29;20049;-81
2024/02/19 02:38:10;;;;;;;1.50;0.50;;;7.90;99.90;;;;;;4877257;29;20113;-82
2024/02/19 02:40:37;;;;;;;1.95;0.60;;;7.80;99.90;;;;;;4880800;29;20044;-81
2024/02/19 02:43:04;;;;;;;2.67;1.05;;;7.90;99.90;;;;;;4883187;29;20053;-81
2024/02/19 02:45:32;;;;;;;2.35;0.98;;;7.90;99.90;;;;;;4904440;29;20521;-81
2024/02/19 02:47:59;;;;;;;4.70;1.27;;;7.90;99.90;;;;;;4880434;29;20057;-81
2024/02/19 02:50:27;;;;;;;3.42;0.70;;;7.90;99.90;;;;;;4877727;29;20049;-81
2024/02/19 02:52:55;;;;;;;3.38;1.20;;;8.00;99.90;;;;;;4890712;29;20076;-81
2024/02/19 02:55:23;;;;;;;2.47;0.65;;;8.00;99.90;;;;;;4868971;29;20083;-81
2024/02/19 02:57:51;;;;;;;3.33;2.38;;;8.00;99.90;;;;;;4850988;29;20568;-81
2024/02/19 03:00:19;;;;;;;7.18;1.10;;;8.00;99.90;;;;;;4878573;29;20049;-80
2024/02/19 03:02:46;;;;;;;3.22;0.77;;;8.10;99.90;;;;;;4869572;29;20043;-82
2024/02/19 03:05:14;;;;;;;4.05;0.95;;;8.00;99.90;;;;;;4889272;29;20043;-81
2024/02/19 03:07:42;;;;;;;6.45;1.20;;;8.00;99.90;;;;;;4874136;29;20163;-81
2024/02/19 03:10:11;;;;;;;3.83;1.17;;;8.10;99.90;;;;;;4865780;29;20056;-81
2024/02/19 03:12:39;;;;;;;2.65;0.63;;;8.10;99.90;;;;;;4879615;29;20209;-81
2024/02/19 03:15:07;;;;;;;3.22;1.10;;;8.10;99.90;;;;;;4866724;29;20132;-81
2024/02/19 03:17:35;;;;;;;4.72;1.17;;;8.10;99.90;;;;;;4860973;29;20119;-81
2024/02/19 03:20:05;;;;;;;2.58;1.15;;;8.10;99.90;;;;;;4846026;29;20056;-81
2024/02/19 03:22:32;;;;;;;4.20;2.05;;;8.20;99.90;;;;;;4854287;29;20195;-81
2024/02/19 03:25:00;;;;;;;5.63;1.40;;;8.20;99.90;;;;;;4878283;29;20059;-81
2024/02/19 03:27:28;;;;;;;2.25;0.73;;;8.20;99.90;;;;;;4890932;29;20555;-81
2024/02/19 03:29:55;;;;;;;2.13;1.00;;;8.20;99.90;;;;;;4862289;29;20053;-81
2024/02/19 03:32:23;;;;;;;3.42;0.85;;;8.10;99.90;;;;;;4875982;29;20051;-81
2024/02/19 03:34:51;;;;;;;2.42;0.52;;;8.10;99.90;;;;;;4872614;29;20055;-80
2024/02/19 03:37:18;;;;;;;1.75;0.63;;;8.10;99.90;;;;;;4889945;29;20128;-79
2024/02/19 03:39:45;;;;;;;3.20;0.40;;;8.00;99.90;;;;;;4883183;29;20044;-81
2024/02/19 03:42:13;;;;;;;2.33;0.60;;;8.00;99.90;;;;;;4876688;29;20479;-81
2024/02/19 03:44:41;;;;;;;3.03;0.73;;;7.90;99.90;;;;;;4874691;29;20040;-81
2024/02/19 03:47:11;;;;;;;3.03;0.90;;;7.90;99.90;;;;;;4867575;29;20072;-81
2024/02/19 03:49:39;;;;;;;6.20;1.45;;;7.90;99.90;;;;;;4859026;29;20501;-81
2024/02/19 03:52:06;;;;;;;2.53;0.95;;;7.80;99.90;;;;;;4888192;29;20041;-82
2024/02/19 03:54:34;;;;;;;4.03;0.95;;;7.90;99.90;;;;;;4870931;29;20079;-82
2024/02/19 03:57:01;;;;;;;3.47;0.47;;;8.00;99.90;;;;;;4866380;29;20052;-81
2024/02/19 03:59:33;;;;;;;7.05;1.08;;;8.00;99.90;;;;;;4876973;29;20048;-81
2024/02/19 04:02:01;;;;;;;2.13;1.02;;;8.00;99.90;;;;;;4874006;29;20072;-81
2024/02/19 04:04:32;;;;;;;8.23;1.17;;;8.00;99.90;;;;;;4853657;29;20129;-81
2024/02/19 04:07:02;;;;;;;5.45;0.70;;;8.00;99.90;;;;;;4866014;29;20464;-81
2024/02/19 04:09:29;;;;;;;2.60;0.57;;;7.90;99.90;;;;;;4889561;29;20044;-81
2024/02/19 04:11:58;;;;;;;2.45;1.08;;;8.00;99.90;;;;;;4865538;29;20052;-81
2024/02/19 04:14:27;;;;;;;2.45;0.88;;;8.00;99.90;;;;;;4868563;29;20056;-81
2024/02/19 04:16:54;;;;;;;2.03;1.00;;;8.10;99.90;;;;;;4896538;29;20048;-81
2024/02/19 04:19:24;;;;;;;7.70;1.08;;;8.10;99.90;;;;;;4892300;29;20126;-81
2024/02/19 04:21:51;;;;;;;2.92;0.75;;;8.10;99.90;;;;;;4892269;29;20087;-81
2024/02/19 04:24:21;;;;;;;3.05;0.65;;;8.10;99.90;;;;;;4900261;29;20053;-80
2024/02/19 04:26:49;;;;;;;2.60;0.52;;;8.00;99.90;;;;;;4885078;29;20058;-82
2024/02/19 04:29:19;;;;;;;3.72;0.75;;;7.90;99.90;;;;;;4872254;29;20420;-81
2024/02/19 04:31:46;;;;;;;1.55;0.43;;;7.80;99.90;;;;;;4866516;29;20512;-80
2024/02/19 04:34:13;;;;;;;9.30;1.55;;;7.80;99.90;;;;;;4880038;29;20072;-81
2024/02/19 04:36:43;;;;;;;4.90;0.68;;;7.70;99.90;;;;;;4865858;29;20048;-81
2024/02/19 04:39:11;;;;;;;2.65;0.47;;;7.70;99.90;;;;;;4883895;29;20052;-81
2024/02/19 04:41:47;;;;;;;2.15;0.60;;;7.60;99.90;;;;;;4894686;29;20067;-81
2024/02/19 04:44:14;;;;;;;5.22;0.93;;;7.60;99.90;;;;;;4886058;29;20377;-81
2024/02/19 04:46:42;;;;;;;5.13;1.15;;;7.50;99.90;;;;;;4896680;29;20096;-81
2024/02/19 04:49:09;;;;;;;9.10;1.27;;;7.60;99.90;;;;;;4864853;29;20055;-82
2024/02/19 04:51:37;;;;;;;3.75;2.10;;;7.60;99.90;;;;;;4881052;29;20041;-82
2024/02/19 04:54:05;;;;;;;7.50;1.25;;;7.60;99.90;;;;;;4864115;29;20179;-81
2024/02/19 04:56:32;;;;;;;3.22;1.27;;;7.60;99.90;;;;;;4869662;29;20040;-82
2024/02/19 04:59:02;;;;;;;5.00;1.00;;;7.60;99.90;;;;;;4870289;29;20103;-81
2024/02/19 05:01:30;;;;;;;5.82;1.15;;;7.60;99.90;;;;;;4898589;29;20117;-81
2024/02/19 05:03:59;;;;;;;9.38;2.20;;;7.60;99.90;;;;;;4862939;29;20059;-81
2024/02/19 05:06:28;;;;;;;5.00;2.45;;;7.50;99.90;;;;;;4883126;29;20076;-81
2024/02/19 05:08:55;;;;;;;8.07;1.67;;;7.40;99.90;;;;;;4921471;29;20084;-80
2024/02/19 05:11:22;;;;;;;9.23;1.27;;;7.50;99.90;;;;;;4906631;29;20059;-81
2024/02/19 05:13:50;;;;;;;8.13;1.35;;;7.50;99.90;;;;;;4892198;29;20048;-81
2024/02/19 05:16:18;;;;;;;9.63;1.52;;;7.50;99.90;;;;;;4894661;29;20087;-81
2024/02/19 05:18:49;;;;;;;9.15;1.30;;;7.50;99.90;;;;;;4858753;29;20056;-82
2024/02/19 05:21:17;;;;;;;7.72;1.67;;;7.60;99.90;;;;;;4869336;29;20052;-82
2024/02/19 05:23:48;;;;;;;4.63;1.55;;;7.60;99.90;;;;;;4883895;29;20080;-82
2024/02/19 05:26:27;;;;;;;9.65;1.30;;;7.70;99.90;;;;;;4875467;29;20049;-82
2024/02/19 05:28:55;;;;;;;6.60;1.20;;;7.70;99.90;;;;;;4861065;29;20076;-79
2024/02/19 05:31:33;;;;;;;8.23;2.55;;;7.70;99.90;;;;;;4854379;29;20049;-80
2024/02/19 05:34:04;;;;;;;8.45;1.92;;;7.80;99.90;;;;;;4906720;29;20098;-80
2024/02/19 05:36:35;;;;;;;10.93;2.45;;;7.80;99.90;;;;;;4905347;29;20053;-80
2024/02/19 05:39:02;;;;;;;7.57;2.08;;;7.80;99.90;;;;;;4880637;29;20515;-81
2024/02/19 05:41:30;;;;;;;3.67;1.40;;;7.80;99.90;;;;;;4875971;29;20052;-81
2024/02/19 05:43:58;;;;;;;10.60;2.53;;;7.80;99.90;;;;;;4885902;29;20125;-81
2024/02/19 05:46:25;;;;;;;2.10;1.17;;;7.80;99.90;;;;;;4864531;29;20511;-81
2024/02/19 05:49:02;;;;;;;8.65;3.08;;;7.70;99.90;;;;;;4866363;29;20049;-80
2024/02/19 05:51:31;;;;;;;18.70;2.92;;;7.80;99.90;;;;;;4888583;29;20056;-80
2024/02/19 05:53:58;;;;;;;8.85;1.90;;;7.80;99.90;;;;;;4872091;29;20540;-81
2024/02/19 05:56:28;;;;;;;6.72;2.13;;;7.70;99.90;;;;;;4901725;29;20143;-81
2024/02/19 05:58:56;;;;;;;6.25;2.10;;;7.80;99.90;;;;;;4872081;29;20071;-81
2024/02/19 06:01:23;;;;;;;11.70;2.00;;;7.80;99.90;;;;;;4856570;29;20048;-81
2024/02/19 06:03:52;;;;;;;13.60;1.75;;;7.80;99.90;;;;;;4883933;29;20080;-81
2024/02/19 06:06:20;;;;;;;8.82;1.77;;;7.80;99.90;;;;;;4881401;29;20056;-81
2024/02/19 06:08:49;;;;;;;6.70;1.58;;;7.80;99.90;;;;;;4872057;29;20107;-81
2024/02/19 06:11:16;;;;;;;9.20;1.80;;;7.80;99.90;;;;;;4877203;29;20048;-82
2024/02/19 06:13:44;;;;;;;9.18;1.63;;;7.80;99.90;;;;;;4907641;29;20040;-81
2024/02/19 06:16:11;;;;;;;11.18;2.67;;;7.80;99.90;;;;;;4880329;29;20044;-81
2024/02/19 06:18:38;;;;;;;7.93;1.83;;;7.80;99.90;;;;;;4909246;29;20551;-81
2024/02/19 06:21:05;;;;;;;11.68;1.38;;;7.90;99.90;;;;;;4917178;29;20048;-81
2024/02/19 06:23:34;;;;;;;12.85;3.85;;;7.90;99.90;;;;;;4900838;29;20045;-81
2024/02/19 06:26:02;;;;;;;13.55;2.55;;;7.90;99.90;;;;;;4885045;29;20131;-82
2024/02/19 06:28:30;;;;;;;5.47;1.20;;;8.00;99.90;;;;;;4897031;29;20060;-81
2024/02/19 06:30:58;;;;;;;14.02;2.90;;;8.00;99.90;;;;;;4849552;29;20040;-81
2024/02/19 06:33:28;;;;;;;10.25;2.45;;;8.00;99.90;;;;;;4857632;29;20136;-82
2024/02/19 06:35:55;;;;;;;5.70;1.45;;;8.00;99.90;;;;;;4852316;29;20159;-82
2024/02/19 06:38:24;;;;;;;14.90;2.58;;;8.00;99.90;;;;;;4862291;29;20393;-81
2024/02/19 06:40:55;;;;;;;14.27;2.13;;;8.00;99.90;;;;;;4898542;29;20072;-81
2024/02/19 06:43:23;;;;;;;6.03;1.83;;;8.00;99.90;;;;;;4870282;29;20051;-81
2024/02/19 06:45:52;;;;;;;10.90;1.90;;;8.00;99.90;;;;;;4871236;29;20064;-82
2024/02/19 06:48:19;;;;;;;8.73;1.50;;;8.10;99.90;;;;;;4861201;29;20057;-81
2024/02/19 06:50:47;;;;;;;7.15;1.23;;;8.00;99.90;;;;;;4898592;29;20040;-81
2024/02/19 06:53:16;;;;;;;8.02;1.92;;;8.00;99.90;;;;;;4896441;29;20048;-82
2024/02/19 06:55:43;;;;;;;15.48;2.50;;;8.10;99.90;;;;;;4891734;29;20055;-82
2024/02/19 06:58:11;;;;;;;5.13;2.15;;;8.10;99.90;;;;;;4877318;29;20053;-81
2024/02/19 07:00:38;;;;;;;11.85;2.53;;;8.10;99.90;;;;;;4848548;29;20097;-81
2024/02/19 07:03:05;;;;;;;8.75;1.50;;;8.10;99.90;;;;;;4848871;29;20044;-82
2024/02/19 07:05:35;;;;;;;5.93;2.35;;;8.10;99.90;;;;;;4895935;29;20124;-81
2024/02/19 07:08:02;;;;;;;14.50;2.42;;;8.10;99.90;;;;;;4868473;29;20072;-82
2024/02/19 07:10:30;;;;;;;3.95;1.35;;;8.20;99.90;;;;;;4878444;29;20048;-80
2024/02/19 07:12:58;;;;;;;12.63;2.58;;;8.20;99.90;;;;;;4878807;29;20051;-81
2024/02/19 07:15:26;;;;;;;14.00;2.58;;;8.20;99.90;;;;;;4886920;29;20056;-81
2024/02/19 07:17:56;;;;;;;19.83;2.15;;;8.30;99.90;;;;;;4874410;29;20572;-81
2024/02/19 07:20:24;;;;;;;8.80;2.35;;;8.40;99.90;;;;;;4914190;29;20512;-80
2024/02/19 07:22:54;;;;;;;4.80;2.80;;;8.40;99.90;;;;;;4909306;29;20056;-81
2024/02/19 07:25:23;;;;;;;3.50;1.73;;;8.40;99.90;;;;;;4888882;29;20048;-81
2024/02/19 07:27:52;;;;;;;15.23;2.97;;;8.40;99.90;;;;;;4878179;29;20500;-81
2024/02/19 07:30:19;;;;;;;7.47;2.58;;;8.40;99.90;;;;;;4883505;29;20052;-81
2024/02/19 07:32:48;;;;;;;9.57;2.72;;;8.50;99.90;;;;;;4879050;29;20389;-81
2024/02/19 07:35:16;;;;;;;11.38;2.72;;;8.50;99.90;;;;;;4873124;29;20506;-81
2024/02/19 07:37:44;;;;;;;9.07;2.45;;;8.60;99.90;;;;;;4907980;29;20127;-81
2024/02/19 07:40:12;;;;;;;10.68;2.83;;;8.60;99.90;;;;;;4887957;29;20041;-81
2024/02/19 07:42:43;;;;;;;8.68;2.72;;;8.60;99.90;;;;;;4909839;29;20060;-81
2024/02/19 07:45:10;;;;;;;13.38;3.85;;;8.60;99.90;;;;;;4873402;29;20124;-81
2024/02/19 07:47:39;;;;;;;9.00;3.28;;;8.60;99.90;;;;;;4877916;29;20071;-81
2024/02/19 07:50:15;;;;;;;8.65;2.72;;;8.60;99.90;;;;;;4880806;29;20085;-80
2024/02/19 07:52:47;;;;;;;6.53;2.38;;;8.60;99.90;;;;;;4912976;29;20040;-81
2024/02/19 07:55:26;;;;;;;13.38;4.00;;;8.70;99.90;;;;;;4903928;29;20051;-81
2024/02/19 07:57:54;;;;;;;14.13;5.07;;;8.80;99.90;;;;;;4868292;29;20068;-81
2024/02/19 08:00:29;;;;;;;15.85;3.17;;;8.90;99.90;;;;;;4900883;29;20102;-81
2024/02/19 08:02:57;;;;;;;13.77;3.83;;;9.00;99.90;;;;;;4901401;29;20049;-81
2024/02/19 08:05:25;;;;;;;10.93;2.60;;;9.10;99.90;;;;;;4883951;29;20515;-81
2024/02/19 08:07:55;;;;;;;;;;;9.10;99.90;;;;;;4905061;29;20053;-81
2024/02/19 08:10:24;;;;;;;13.02;3.22;;;9.10;99.90;;;;;;4887044;29;20315;-81
2024/02/19 08:12:52;;;;;;;10.65;2.38;;;9.20;99.90;;;;;;4893381;29;20508;-81
2024/02/19 08:15:20;;;;;;;5.22;2.13;;;9.20;99.90;;;;;;4892713;29;20495;-82
2024/02/19 08:17:47;;;;;;;8.20;3.33;;;9.20;99.90;;;;;;4908990;29;20049;-82
2024/02/19 08:20:14;;;;;;;5.00;2.60;;;9.30;99.90;;;;;;4911834;29;20475;-81
2024/02/19 08:22:41;;;;;;;11.05;2.75;;;9.40;99.90;;;;;;4884043;29;20040;-82
2024/02/19 08:25:11;;;;;;;6.75;2.30;;;9.40;99.90;;;;;;4890461;29;20566;-82
2024/02/19 08:27:40;;;;;;;8.98;3.05;;;9.50;99.90;;;;;;4873556;29;20076;-80
2024/02/19 08:30:09;;;;;;;6.43;2.05;;;9.50;99.90;;;;;;4884200;29;20052;-81
2024/02/19 08:32:36;;;;;;;7.07;2.47;;;9.50;99.90;;;;;;4863799;29;20044;-81
2024/02/19 08:35:09;;;;;;;7.35;2.00;;;9.50;99.90;;;;;;4876134;29;20049;-80
2024/02/19 08:37:37;;;;;;;8.70;3.15;;;9.60;99.90;;;;;;4872057;29;20508;-81
2024/02/19 08:40:08;;;;;;;10.50;3.03;;;9.50;99.90;;;;;;4894905;29;20100;-81
2024/02/19 08:42:37;;;;;;;7.55;3.70;;;9.60;99.90;;;;;;4886213;29;20059;-81
2024/02/19 08:45:05;;;;;;;10.65;3.67;;;9.70;99.90;;;;;;4890245;29;20044;-80
2024/02/19 08:47:32;;;;;;;10.82;3.65;;;9.80;99.90;;;;;;4905528;29;20044;-80
2024/02/19 08:49:59;;;;;;;8.32;2.15;;;9.90;99.90;;;;;;4887097;29;20059;-81
2024/02/19 08:52:29;;;;;;;11.02;3.30;;;10.00;99.90;;;;;;4893609;29;20077;-80
2024/02/19 08:54:57;;;;;;;5.75;2.67;;;10.00;99.90;;;;;;4885950;29;20408;-81
2024/02/19 08:57:26;;;;;;;8.23;3.42;;;10.10;99.90;;;;;;4879747;29;20049;-81
2024/02/19 08:59:53;;;;;;;10.82;3.72;;;10.20;99.90;;;;;;4880266;29;20056;-81
2024/02/19 09:02:21;;;;;;;8.57;3.33;;;10.30;99.90;;;;;;4889797;29;20060;-80
2024/02/19 09:04:49;;;;;;;11.18;3.22;;;10.30;99.90;;;;;;4901269;29;20045;-81
2024/02/19 09:07:18;;;;;;;7.30;2.45;;;9.90;99.90;;;;;;4912072;29;20077;-81
2024/02/19 09:09:47;;;;;;;10.80;4.18;;;10.60;99.90;;;;;;4885224;29;20108;-82
2024/02/19 09:12:18;;;;;;;6.40;3.58;;;10.60;99.90;;;;;;4910029;29;20040;-82
2024/02/19 09:14:47;;;;;;;12.93;3.53;;;10.70;99.90;;;;;;4890610;29;20107;-82
2024/02/19 09:17:16;;;;;;;12.55;3.42;;;10.70;99.90;;;;;;4905376;29;20040;-83
2024/02/19 09:19:46;;;;;;;10.50;4.53;;;10.70;99.90;;;;;;4883710;29;20025;-81
2024/02/19 09:22:15;;;;;;;;;;;10.70;99.90;;;;;;4873451;29;20090;-82
2024/02/19 09:24:48;;;;;;;8.98;3.00;;;10.70;99.90;;;;;;4871843;29;19930;-80
2024/02/19 09:27:15;;;;;;;11.52;5.97;;;10.80;99.90;;;;;;4902430;29;20056;-82
2024/02/19 09:29:42;;;;;;;11.32;4.05;;;10.90;99.90;;;;;;4864154;29;20060;-82
2024/02/19 09:32:10;;;;;;;5.95;2.25;;;11.10;99.90;;;;;;4876569;29;20040;-82
2024/02/19 09:34:41;;;;;;;9.52;3.78;;;11.10;99.90;;;;;;4879699;29;20423;-83
2024/02/19 09:37:08;;;;;;;16.25;4.07;;;11.10;99.90;;;;;;4876487;29;20090;-81
2024/02/19 09:39:39;;;;;;;9.05;3.22;;;11.20;99.90;;;;;;4883790;29;20136;-81
2024/02/19 09:42:08;;;;;;;8.90;3.53;;;11.20;99.90;;;;;;4866525;29;20059;-82
2024/02/19 09:44:37;;;;;;;5.85;3.63;;;11.10;99.90;;;;;;4884716;29;20052;-83
2024/02/19 09:47:07;;;;;;;10.05;3.08;;;11.00;99.90;;;;;;4894600;29;20052;-83
2024/02/19 09:49:36;;;;;;;12.80;3.78;;;11.00;99.90;;;;;;4892336;29;20072;-81
2024/02/19 09:52:06;;;;;;;7.60;3.05;;;10.90;99.90;;;;;;4886257;29;20036;-82
2024/02/19 09:54:35;;;;;;;6.97;2.92;;;10.90;99.90;;;;;;4885204;29;20071;-84
2024/02/19 09:57:02;;;;;;;6.57;2.35;;;10.80;99.90;;;;;;4888065;29;20055;-84
2024/02/19 09:59:31;;;;;;;9.88;5.13;;;10.70;99.90;;;;;;4861911;29;20041;-86
2024/02/19 10:02:00;;;;;;;6.82;3.40;;;10.70;99.90;;;;;;4903539;29;20473;-86
2024/02/19 10:04:31;;;;;;;9.60;2.65;;;10.60;99.90;;;;;;4884954;29;20503;-84
2024/02/19 10:07:02;;;;;;;9.07;2.60;;;9.90;99.90;;;;;;4884504;29;20044;-87
2024/02/19 10:09:29;;;;;;;;;;;10.00;99.90;;;;;;4884111;29;20051;-85
2024/02/19 10:11:57;;;;;;;7.95;2.67;;;10.40;99.90;;;;;;4868378;29;19950;-86
2024/02/19 10:14:28;;;;;;;11.93;3.78;;;10.50;99.90;;;;;;4885265;29;20048;-86
2024/02/19 10:17:00;;;;;;;8.20;3.60;;;10.00;99.90;;;;;;4892929;29;20051;-84
2024/02/19 10:19:27;;;;;;;11.23;4.00;;;10.50;99.90;;;;;;4893357;29;20045;-85
2024/02/19 10:21:55;;;;;;;8.32;3.00;;;10.40;99.90;;;;;;4870251;29;20293;-87
2024/02/19 10:24:23;;;;;;;9.82;2.75;;;10.50;99.90;;;;;;4874406;29;20104;-85
2024/02/19 10:26:51;;;;;;;7.90;3.80;;;10.40;99.90;;;;;;4893712;29;20072;-85
2024/02/19 10:29:18;;;;;;;6.63;3.60;;;10.30;99.90;;;;;;4879574;29;20075;-85
2024/02/19 10:31:49;;;;;;;13.18;4.57;;;10.20;99.90;;;;;;4875130;29;20296;-85
2024/02/19 10:34:17;;;;;;;14.75;6.53;;;10.20;99.90;;;;;;4878617;29;20041;-85
2024/02/19 10:36:49;;;;;;;9.95;4.13;;;10.10;99.90;;;;;;4904031;29;20040;-85
2024/02/19 10:39:21;;;;;;;7.68;5.45;;;10.10;99.90;;;;;;4890959;29;20059;-86
2024/02/19 10:41:49;;;;;;;10.23;5.97;;;10.50;99.90;;;;;;4908854;29;20419;-86
2024/02/19 10:44:17;;;;;;;8.25;5.13;;;10.20;99.90;;;;;;4889057;29;20108;-87
2024/02/19 10:46:45;;;;;;;9.32;3.95;;;10.20;99.90;;;;;;4854021;29;20048;-84
2024/02/19 10:49:18;;;;;;;9.82;5.30;;;10.30;99.90;;;;;;4897746;29;20487;-82
2024/02/19 10:51:48;;;;;;;10.65;4.88;;;10.30;99.90;;;;;;4881207;29;20056;-82
2024/02/19 10:54:18;;;;;;;10.70;5.85;;;10.40;99.90;;;;;;4867365;29;20532;-82
2024/02/19 10:56:46;;;;;;;11.88;5.85;;;10.40;99.90;;;;;;4898367;29;20049;-82
2024/02/19 10:59:16;;;;;;;15.77;7.90;;;10.50;99.90;;;;;;4895369;29;20072;-82
2024/02/19 11:02:09;;;;;;;11.50;6.45;;;10.50;99.90;;;;;;4903896;29;20048;-81
2024/02/19 11:04:38;;;;;;;10.32;4.80;;;10.60;99.90;;;;;;4878938;29;20063;-80
2024/02/19 11:07:06;;;;;;;15.23;5.32;;;10.70;99.90;;;;;;4865276;29;20480;-80
2024/02/19 11:09:33;;;;;;;7.00;4.90;;;10.70;99.90;;;;;;4903247;29;20048;-81
2024/02/19 11:12:05;;;;;;;10.52;5.32;;;10.90;99.90;;;;;;4890452;29;20132;-81
2024/02/19 11:14:35;;;;;;;6.97;4.68;;;11.00;99.90;;;;;;4866960;29;20404;-81
2024/02/19 11:17:04;;;;;;;9.48;5.97;;;11.10;99.90;;;;;;4885597;29;20064;-80
2024/02/19 11:19:39;;;;;;;12.65;4.75;;;11.10;99.90;;;;;;4899655;29;20041;-81
2024/02/19 11:22:11;;;;;;;14.25;6.47;;;11.10;99.90;;;;;;4856729;29;20060;-80
2024/02/19 11:24:42;;;;;;;17.50;6.47;;;11.20;99.90;;;;;;4880037;29;20497;-80
2024/02/19 11:27:12;;;;;;;14.65;5.18;;;11.30;99.90;;;;;;4875296;29;20041;-81
2024/02/19 11:29:41;;;;;;;5.32;4.50;;;11.40;99.90;;;;;;4896614;29;20051;-80
2024/02/19 11:32:17;;;;;;;14.27;5.57;;;11.30;99.90;;;;;;4879347;29;20049;-81
2024/02/19 11:34:45;;;;;;;8.00;4.95;;;11.30;99.90;;;;;;4871713;29;20052;-81
2024/02/19 11:37:14;;;;;;;9.43;3.92;;;11.30;99.90;;;;;;4898954;29;20032;-81
2024/02/19 11:39:43;;;;;;;9.35;4.55;;;11.30;99.90;;;;;;4884229;29;20048;-81
2024/02/19 11:42:14;;;;;;;11.20;5.88;;;11.30;99.90;;;;;;4884252;29;20048;-82
2024/02/19 11:44:48;;;;;;;11.15;4.13;;;11.40;99.90;;;;;;4881639;29;20044;-82
2024/02/19 11:47:15;;;;;;;10.27;5.05;;;11.40;99.90;;;;;;4890737;29;20464;-84
2024/02/19 11:49:45;;;;;;;11.55;5.07;;;11.40;99.90;;;;;;4889940;29;20059;-82
2024/02/19 11:52:14;;;;;;;8.70;4.65;;;11.30;99.90;;;;;;4877800;29;20101;-83
2024/02/19 11:54:43;;;;;;;12.23;5.50;;;11.40;99.90;;;;;;4891594;29;20049;-83
2024/02/19 11:57:13;;;;;;;7.35;3.97;;;11.50;99.90;;;;;;4886167;29;20094;-83
2024/02/19 11:59:45;;;;;;;9.73;3.05;;;11.70;99.90;;;;;;4912624;29;20064;-83
2024/02/19 12:02:13;;;;;;;9.65;4.30;;;11.80;99.90;;;;;;4897229;29;20082;-83
2024/02/19 12:04:41;;;;;;;14.77;3.35;;;11.80;99.90;;;;;;4878834;29;20119;-83
2024/02/19 12:07:09;;;;;;;5.47;3.25;;;11.90;99.90;;;;;;4883118;29;20052;-87
2024/02/19 12:09:38;;;;;;;11.98;4.20;;;11.90;99.90;;;;;;4873527;29;20139;-84
2024/02/19 12:12:09;;;;;;;7.00;3.17;;;11.80;99.90;;;;;;4869014;29;20071;-84
2024/02/19 12:14:41;;;;;;;6.88;3.53;;;11.80;99.90;;;;;;4903922;29;20036;-84
2024/02/19 12:17:08;;;;;;;6.50;4.63;;;11.90;99.90;;;;;;4872777;29;20049;-84
2024/02/19 12:19:37;;;;;;;9.60;3.30;;;11.70;99.90;;;;;;4890354;29;20047;-83
2024/02/19 12:22:06;;;;;;;6.40;3.25;;;11.70;99.90;;;;;;4869674;29;20104;-84
2024/02/19 12:24:33;;;;;;;5.03;3.20;;;11.70;99.90;;;;;;4874228;29;20041;-82
2024/02/19 12:27:02;;;;;;;8.48;4.22;;;11.70;99.90;;;;;;4886771;29;20040;-84
2024/02/19 12:29:30;;;;;;;7.53;3.55;;;11.50;99.90;;;;;;4880889;29;20028;-81
2024/02/19 12:31:57;;;;;;;4.82;2.63;;;11.40;99.90;;;;;;4901126;29;20051;-82
2024/02/19 12:34:24;;;;;;;8.23;3.72;;;11.30;99.90;;;;;;4872979;29;20052;-82
2024/02/19 12:36:51;;;;;;;12.80;4.07;;;11.20;99.90;;;;;;4879837;29;20152;-82
2024/02/19 12:39:19;;;;;;;6.40;4.38;;;11.10;99.90;;;;;;4926886;29;20060;-83
2024/02/19 12:41:48;;;;;;;6.35;3.22;;;11.10;99.90;;;;;;4890658;29;20044;-83
2024/02/19 12:44:18;;;;;;;8.30;3.08;;;11.10;99.90;;;;;;4907938;29;20040;-83
2024/02/19 12:46:46;;;;;;;9.55;4.55;;;11.00;99.90;;;;;;4886866;29;20048;-83
2024/02/19 12:49:16;;;;;;;7.30;3.92;;;11.00;99.90;;;;;;4870801;29;20048;-83
2024/02/19 12:51:52;;;;;;;7.78;3.60;;;10.90;99.90;;;;;;4881534;29;20060;-82
2024/02/19 12:54:21;;;;;;;12.40;5.57;;;10.90;99.90;;;;;;4887113;29;20046;-83
2024/02/19 12:56:49;;;;;;;8.77;3.72;;;10.90;99.90;;;;;;4891058;29;20041;-81
2024/02/19 12:59:17;;;;;;;9.38;6.13;;;10.80;99.90;;;;;;4875144;29;20040;-82
2024/02/19 13:01:44;;;;;;;6.65;3.15;;;10.80;99.90;;;;;;4870760;29;20045;-82